Airfield :
LOGIN :

Register | Disclaimer

   EN    FR    IT 

 










Legend :    VFR   Marginal VFR   IFR   Intensive IFR   Very Intensive IFR
Visi :
Ceiling :
>= 8 km
>= 3000ft
5 to 8 km
1000 to 3000 ft
1500m to 5 km
500 to 1000 ft
800 to 1500m
200 to 500 ft
< 800m
< 200 ft
Symbols :   Thunderstorms  Fog  Heavy snow  Heavy precipitations  Wind > 20 kt
SIGMETs :     Misc.  Thunderstorms  Icing  Turbulence  Mountain Waves  Volcanic Ashes







- Airport Elevation : 0 ft


ENQA - Troll A Platform

CURRENT METAR :
  • 210720Z AUTO 22006KT 9999NDV FEW037/// BKN130/// 13/06 Q1022 W12/S4

EXPIRED METARs :
  • 210650Z AUTO 22005KT 9999NDV FEW036/// BKN140/// 12/06 Q1022 W12/S4
  • 210620Z AUTO 24006KT 9999NDV OVC130/// 12/06 Q1021 W12/S4
  • 210550Z AUTO 26006KT 9999NDV OVC130/// 12/06 Q1021 W12/S4
  • 210520Z AUTO 27007KT 9999NDV FEW031/// OVC130/// 12/06 Q1021 W12/S4
  • 210450Z AUTO 28008KT 9999NDV FEW030/// OVC130/// 12/06 Q1021 W12/S4

TAF N/A
No reported NOTAMs for that airfield.



MET'MAP, your aeronautical weather chart ! - Copyright ORBIFLY December 2007 - Disclaimer

ORBIFLY MET'MAP TEAM :

Programming & Development : Alexandra Zaïnal
Concept & Development : Baudouin d'Aumeries
Co-Development & Prog : Marc-Olivier Méhu
Technical & hardware support : Manuel Goepfert

Contact : metmap@orbifly.com




SOURCES & CREDITS :

   NOAA